Time;durP1;ratioP1;P1;durP2;ratioP2;P2;SDS_P1;SDS_P2;PMS_P1;PMS_P2;Temp;Humidity;BMP_temperature;BMP_pressure;BME280_temperature;BME280_humidity;BME280_pressure;Samples;Min_cycle;Max_cycle;Signal;HPM_P1;HPM_P2
2023/08/31 00:00:04;;;;;;;2.33;1.52;;;;;;;25.11;49.10;99475.25;5113518;28;20051;-68
2023/08/31 00:02:33;;;;;;;2.45;1.48;;;;;;;25.08;49.03;99462.00;5113517;28;20454;-67
2023/08/31 00:05:03;;;;;;;2.95;1.60;;;;;;;25.10;48.92;99479.03;5113217;28;20043;-67
2023/08/31 00:07:31;;;;;;;1.70;1.33;;;;;;;25.09;49.08;99479.22;5113270;28;20100;-67
2023/08/31 00:10:09;;;;;;;2.35;1.40;;;;;;;25.07;48.78;99473.13;5112801;28;20047;-67
2023/08/31 00:12:38;;;;;;;2.40;1.50;;;;;;;25.06;48.97;99469.56;5113255;28;20459;-68
2023/08/31 00:15:09;;;;;;;1.60;1.33;;;;;;;25.06;49.11;99468.72;5113077;28;20480;-68
2023/08/31 00:17:37;;;;;;;2.72;1.65;;;;;;;25.06;49.19;99472.28;5113142;28;20440;-68
2023/08/31 00:20:08;;;;;;;2.67;1.60;;;;;;;25.02;49.06;99465.56;5112455;28;20087;-67
2023/08/31 00:22:36;;;;;;;2.40;1.52;;;;;;;25.01;49.11;99466.59;5112856;28;20079;-67
2023/08/31 00:25:08;;;;;;;2.03;1.30;;;;;;;25.02;49.26;99475.66;5113168;28;20138;-67
2023/08/31 00:27:37;;;;;;;2.25;1.40;;;;;;;25.00;48.96;99473.09;5112874;28;20051;-67
2023/08/31 00:30:08;;;;;;;2.50;1.55;;;;;;;24.98;49.01;99469.72;5112836;28;20404;-68
2023/08/31 00:32:39;;;;;;;1.90;1.38;;;;;;;24.96;48.95;99477.25;5112808;28;20059;-67
2023/08/31 00:35:08;;;;;;;3.50;1.50;;;;;;;24.97;49.14;99481.66;5112432;28;20055;-67
2023/08/31 00:37:36;;;;;;;1.98;1.50;;;;;;;24.98;49.25;99479.78;5112830;28;20051;-67
2023/08/31 00:40:06;;;;;;;2.08;1.50;;;;;;;24.96;49.19;99480.00;5112703;28;20051;-67
2023/08/31 00:42:37;;;;;;;2.33;1.48;;;;;;;24.96;48.99;99474.53;5112613;28;20054;-67
2023/08/31 00:45:08;;;;;;;2.22;1.60;;;;;;;24.95;49.26;99481.03;5112908;28;20082;-66
2023/08/31 00:47:36;;;;;;;2.08;1.38;;;;;;;24.95;49.11;99481.03;5112256;28;20130;-66
2023/08/31 00:50:08;;;;;;;2.22;1.50;;;;;;;24.92;49.25;99473.28;5112246;28;20048;-67
2023/08/31 00:52:36;;;;;;;1.98;1.48;;;;;;;24.92;48.98;99470.53;5112263;28;20058;-66
2023/08/31 00:55:06;;;;;;;2.63;1.50;;;;;;;24.93;49.21;99474.09;5112051;28;20083;-68
2023/08/31 00:57:34;;;;;;;1.55;1.25;;;;;;;24.90;49.31;99469.91;5112279;28;20077;-67
2023/08/31 01:00:06;;;;;;;2.20;1.50;;;;;;;24.89;49.10;99470.94;5111954;28;20058;-67
2023/08/31 01:02:48;;;;;;;2.33;1.55;;;;;;;24.89;49.13;99476.38;5112004;28;20093;-66
2023/08/31 01:05:30;;;;;;;2.85;1.60;;;;;;;24.88;48.88;99474.69;5112030;28;20593;-67
2023/08/31 01:08:09;;;;;;;1.67;1.40;;;;;;;24.87;49.06;99472.19;5111964;28;20397;-67
2023/08/31 01:10:49;;;;;;;2.33;1.50;;;;;;;24.87;48.85;99489.38;5111837;28;20687;-68
2023/08/31 01:13:22;;;;;;;2.25;1.50;;;;;;;24.86;48.91;99490.44;5093596;28;20562;-67
2023/08/31 01:15:54;;;;;;;2.08;1.38;;;;;;;24.85;49.18;99494.22;5112059;28;20044;-66
2023/08/31 01:18:26;;;;;;;3.17;1.80;;;;;;;24.84;49.22;99492.53;5112214;28;20044;-67
2023/08/31 01:21:02;;;;;;;2.38;1.60;;;;;;;24.84;49.37;99484.34;5112093;28;20284;-67
2023/08/31 01:23:34;;;;;;;1.70;1.25;;;;;;;24.84;49.39;99495.25;5111736;28;20395;-67
2023/08/31 01:26:04;;;;;;;1.75;1.45;;;;;;;24.82;49.01;99490.00;5112010;28;20043;-67
2023/08/31 01:28:32;;;;;;;2.05;1.40;;;;;;;24.81;49.43;99503.84;5111912;28;20039;-67
2023/08/31 01:31:05;;;;;;;2.42;1.58;;;;;;;24.81;49.46;99501.13;5112195;28;20044;-67
2023/08/31 01:33:33;;;;;;;2.47;1.80;;;;;;;24.79;49.41;99514.09;5115775;28;20054;-67
2023/08/31 01:36:05;;;;;;;1.95;1.50;;;;;;;24.79;49.10;99505.91;5115827;28;20048;-67
2023/08/31 01:38:36;;;;;;;2.03;1.38;;;;;;;24.78;49.39;99512.41;5116100;28;20047;-67
2023/08/31 01:41:09;;;;;;;;;;;;;;;24.78;49.21;99523.31;5116439;28;20047;-67
2023/08/31 01:43:39;;;;;;;1.85;1.40;;;;;;;24.75;49.57;99512.84;5115724;28;19924;-67
2023/08/31 01:46:07;;;;;;;2.00;1.50;;;;;;;24.76;49.36;99511.78;5115724;28;20056;-67
2023/08/31 01:48:40;;;;;;;2.13;1.50;;;;;;;24.76;49.31;99512.63;5115648;28;20100;-67
2023/08/31 01:51:09;;;;;;;2.40;1.40;;;;;;;24.76;49.46;99509.06;5115961;28;20048;-67
2023/08/31 01:53:37;;;;;;;2.60;1.38;;;;;;;24.72;49.26;99502.34;5115683;28;20043;-67
2023/08/31 01:56:06;;;;;;;2.50;1.67;;;;;;;24.74;49.33;99500.25;5115551;28;20046;-67
2023/08/31 01:58:35;;;;;;;2.22;1.40;;;;;;;24.71;49.44;99498.78;5115425;28;20040;-67
2023/08/31 02:01:04;;;;;;;2.38;1.45;;;;;;;24.72;49.46;99502.34;5115422;28;20079;-67
2023/08/31 02:03:32;;;;;;;2.17;1.30;;;;;;;24.71;49.62;99500.66;5115390;28;20477;-67
2023/08/31 02:06:00;;;;;;;1.92;1.40;;;;;;;24.72;49.28;99507.78;5115519;28;20077;-67
2023/08/31 02:08:28;;;;;;;1.88;1.30;;;;;;;24.71;49.29;99506.13;5115391;28;20097;-67
2023/08/31 02:10:59;;;;;;;2.08;1.30;;;;;;;24.67;49.48;99502.09;5115249;28;20117;-67
2023/08/31 02:13:28;;;;;;;2.08;1.60;;;;;;;24.69;49.38;99513.63;5115096;28;20044;-67
2023/08/31 02:15:57;;;;;;;3.08;1.50;;;;;;;24.65;49.14;99504.19;5115353;28;20047;-67
2023/08/31 02:18:26;;;;;;;1.88;1.40;;;;;;;24.65;49.37;99507.75;5115114;28;20047;-67
2023/08/31 02:20:54;;;;;;;2.03;1.38;;;;;;;24.64;49.46;99516.13;5115127;28;20054;-67
2023/08/31 02:23:22;;;;;;;2.35;1.48;;;;;;;24.64;49.20;99513.41;5115417;28;20127;-68
2023/08/31 02:25:50;;;;;;;3.05;1.40;;;;;;;24.62;49.26;99516.34;5114970;28;20109;-67
2023/08/31 02:28:19;;;;;;;1.83;1.30;;;;;;;24.62;48.99;99510.03;5115144;28;20069;-67
2023/08/31 02:30:47;;;;;;;1.88;1.45;;;;;;;24.61;49.35;99521.97;5115100;28;20050;-67
2023/08/31 02:33:19;;;;;;;2.70;1.40;;;;;;;24.59;49.29;99524.91;5115000;28;20075;-67
2023/08/31 02:35:48;;;;;;;2.33;1.30;;;;;;;24.60;49.17;99520.28;5114633;28;20079;-67
2023/08/31 02:38:16;;;;;;;2.08;1.45;;;;;;;24.58;49.17;99519.66;5114856;28;20198;-67
2023/08/31 02:40:47;;;;;;;2.10;1.50;;;;;;;24.57;49.19;99512.50;5114677;28;20568;-67
2023/08/31 02:43:16;;;;;;;2.25;1.40;;;;;;;24.56;49.31;99525.31;5114315;28;20051;-67
2023/08/31 02:45:44;;;;;;;1.30;1.10;;;;;;;24.55;49.29;99519.00;5114595;28;20105;-67
2023/08/31 02:48:12;;;;;;;2.53;1.38;;;;;;;24.53;49.30;99526.56;5096232;28;20127;-66
2023/08/31 02:50:42;;;;;;;2.10;1.50;;;;;;;24.54;49.24;99522.78;5114528;28;20050;-65
2023/08/31 02:53:11;;;;;;;1.50;1.20;;;;;;;24.53;49.19;99523.84;5114440;28;20051;-66
2023/08/31 02:55:39;;;;;;;2.03;1.45;;;;;;;24.52;48.94;99535.78;5114210;28;20055;-66
2023/08/31 02:58:07;;;;;;;2.58;1.40;;;;;;;24.51;49.34;99533.22;5114684;28;20138;-66
2023/08/31 03:00:39;;;;;;;1.75;1.35;;;;;;;24.50;49.04;99532.38;5115150;28;20443;-67
2023/08/31 03:03:08;;;;;;;2.30;1.40;;;;;;;24.51;49.15;99531.38;5114740;28;20047;-66
2023/08/31 03:05:37;;;;;;;2.38;1.30;;;;;;;24.49;49.36;99530.72;5114059;28;20618;-66
2023/08/31 03:08:06;;;;;;;1.30;1.10;;;;;;;24.48;49.01;99523.56;5114279;28;20050;-67
2023/08/31 03:10:35;;;;;;;1.70;1.38;;;;;;;24.50;48.96;99537.00;5114028;28;20052;-67
2023/08/31 03:13:04;;;;;;;1.98;1.30;;;;;;;24.49;49.34;99530.72;5114241;28;20051;-66
2023/08/31 03:15:33;;;;;;;1.77;1.33;;;;;;;24.46;49.28;99525.66;5113720;28;20055;-67
2023/08/31 03:18:02;;;;;;;2.33;1.38;;;;;;;24.47;49.23;99532.78;5114110;28;20054;-67
2023/08/31 03:20:30;;;;;;;1.15;1.05;;;;;;;24.46;49.09;99533.84;5113884;28;20047;-67
2023/08/31 03:22:58;;;;;;;1.60;1.13;;;;;;;24.46;49.21;99535.72;5114037;28;20077;-66
2023/08/31 03:25:28;;;;;;;2.30;1.20;;;;;;;24.45;49.18;99539.50;5113841;28;20135;-67
2023/08/31 03:27:56;;;;;;;1.45;1.10;;;;;;;24.46;49.16;99538.44;5113843;28;20039;-66
2023/08/31 03:30:24;;;;;;;1.85;1.30;;;;;;;24.44;49.12;99533.22;5113678;28;20058;-66
2023/08/31 03:32:52;;;;;;;2.05;1.25;;;;;;;24.43;49.45;99530.69;5113632;28;20096;-66
2023/08/31 03:35:22;;;;;;;1.55;1.10;;;;;;;24.43;49.37;99536.13;5113937;28;20051;-66
2023/08/31 03:37:50;;;;;;;1.52;1.30;;;;;;;24.41;49.18;99541.75;5113738;28;20060;-66
2023/08/31 03:40:19;;;;;;;2.63;1.30;;;;;;;24.41;49.29;99540.91;5113533;28;20101;-66
2023/08/31 03:42:48;;;;;;;1.30;1.02;;;;;;;24.40;49.20;99553.69;5113533;28;20049;-65
2023/08/31 03:45:18;;;;;;;1.80;1.30;;;;;;;24.39;49.09;99556.63;5113465;28;20469;-66
2023/08/31 03:47:46;;;;;;;1.70;1.27;;;;;;;24.38;49.14;99555.78;5113312;28;20100;-66
2023/08/31 03:50:14;;;;;;;2.45;1.40;;;;;;;24.38;49.12;99558.50;5095610;28;20072;-65
2023/08/31 03:52:42;;;;;;;2.17;1.40;;;;;;;24.36;49.40;99557.88;5113347;28;20047;-65
2023/08/31 03:55:11;;;;;;;2.33;1.52;;;;;;;24.34;49.39;99559.97;5112612;28;20047;-67
2023/08/31 03:57:39;;;;;;;2.13;1.45;;;;;;;24.34;49.30;99559.13;5102780;28;20044;-66
2023/08/31 04:00:12;;;;;;;1.67;1.40;;;;;;;24.35;49.33;99558.09;5092848;28;20055;-67
2023/08/31 04:02:45;;;;;;;1.95;1.40;;;;;;;24.34;49.23;99556.41;5099994;28;20071;-67
2023/08/31 04:05:15;;;;;;;3.03;1.35;;;;;;;24.33;49.10;99552.84;5113285;28;20047;-67
2023/08/31 04:07:43;;;;;;;1.77;1.20;;;;;;;24.33;49.17;99563.72;5112999;28;20445;-67
2023/08/31 04:10:11;;;;;;;1.95;1.35;;;;;;;24.31;49.42;99559.47;5112728;28;20642;-65
2023/08/31 04:12:39;;;;;;;2.13;1.42;;;;;;;24.32;49.36;99567.50;5112859;28;20061;-67
2023/08/31 04:15:11;;;;;;;1.55;1.30;;;;;;;24.30;49.39;99572.25;5112570;28;20515;-67
2023/08/31 04:17:39;;;;;;;1.67;1.40;;;;;;;24.30;49.28;99572.25;5112958;28;20043;-66
2023/08/31 04:20:08;;;;;;;1.92;1.20;;;;;;;24.28;49.35;99569.72;5112733;28;20065;-66
2023/08/31 04:22:37;;;;;;;2.28;1.50;;;;;;;24.27;49.17;99569.94;5112555;28;20042;-66
2023/08/31 04:25:05;;;;;;;2.25;1.35;;;;;;;24.26;49.40;99569.09;5112765;28;20484;-67
2023/08/31 04:27:34;;;;;;;2.30;1.40;;;;;;;24.27;49.34;99565.31;5113007;28;20051;-66
2023/08/31 04:30:03;;;;;;;1.88;1.23;;;;;;;24.25;49.34;99572.00;5115544;28;20051;-66
2023/08/31 04:32:33;;;;;;;1.52;1.20;;;;;;;24.27;49.19;99580.84;5113525;28;20040;-67
2023/08/31 04:35:03;;;;;;;1.40;1.17;;;;;;;24.25;49.06;99578.31;5113311;28;20480;-66
2023/08/31 04:37:32;;;;;;;1.80;1.38;;;;;;;24.24;49.29;99581.22;5095573;28;20043;-66
2023/08/31 04:40:00;;;;;;;1.67;1.15;;;;;;;24.23;49.38;99587.72;5112979;28;20063;-66
2023/08/31 04:42:29;;;;;;;1.85;1.13;;;;;;;24.24;49.41;99592.13;5112441;28;20104;-66
2023/08/31 04:44:57;;;;;;;1.88;1.20;;;;;;;24.21;49.19;99592.50;5112165;28;20069;-66
2023/08/31 04:47:25;;;;;;;3.03;1.33;;;;;;;24.22;49.33;99603.22;5112504;28;20051;-67
2023/08/31 04:49:55;;;;;;;2.20;1.42;;;;;;;24.22;49.19;99599.63;5112249;28;20692;-65
2023/08/31 04:52:24;;;;;;;2.33;1.30;;;;;;;24.22;49.36;99602.38;5112044;28;20048;-66
2023/08/31 04:54:52;;;;;;;2.15;1.50;;;;;;;24.22;49.26;99610.53;5112000;28;20465;-66
2023/08/31 04:57:20;;;;;;;2.60;1.27;;;;;;;24.19;49.12;99605.50;5112036;28;20454;-66
2023/08/31 04:59:48;;;;;;;2.33;1.58;;;;;;;24.20;49.41;99613.47;5112227;28;20044;-67
2023/08/31 05:02:16;;;;;;;2.03;1.30;;;;;;;24.20;49.27;99618.91;5112182;28;20044;-67
2023/08/31 05:04:45;;;;;;;2.30;1.40;;;;;;;24.18;49.40;99620.16;5111775;28;20046;-67
2023/08/31 05:07:14;;;;;;;1.55;1.30;;;;;;;24.19;49.29;99617.22;5111815;28;20048;-67
2023/08/31 05:09:42;;;;;;;2.60;1.48;;;;;;;24.20;49.40;99628.97;5111841;28;20099;-67
2023/08/31 05:12:11;;;;;;;2.72;1.50;;;;;;;24.19;49.18;99630.84;5112093;28;20083;-67
2023/08/31 05:14:39;;;;;;;1.83;1.35;;;;;;;24.19;49.45;99640.91;5111882;28;20047;-67
2023/08/31 05:17:08;;;;;;;2.30;1.20;;;;;;;24.18;49.48;99641.94;5111584;28;20052;-66
2023/08/31 05:19:36;;;;;;;1.90;1.30;;;;;;;24.18;49.48;99641.94;5111693;28;20547;-66
2023/08/31 05:22:04;;;;;;;2.10;1.17;;;;;;;24.18;49.62;99647.41;5111916;28;20050;-66
2023/08/31 05:24:33;;;;;;;2.75;1.60;;;;;;;24.18;49.55;99658.31;5111670;28;20044;-67
2023/08/31 05:27:02;;;;;;;1.80;1.40;;;;;;;24.16;49.49;99654.94;5111921;28;20441;-66
2023/08/31 05:29:31;;;;;;;2.42;1.50;;;;;;;24.15;49.68;99650.53;5111333;28;20039;-66
2023/08/31 05:31:59;;;;;;;1.75;1.30;;;;;;;24.15;49.66;99655.97;5111723;28;20044;-66
2023/08/31 05:34:27;;;;;;;3.38;1.40;;;;;;;24.16;49.49;99663.94;5111685;28;20094;-66
2023/08/31 05:36:55;;;;;;;2.60;1.38;;;;;;;24.16;49.57;99663.09;5111305;28;20100;-66
2023/08/31 05:39:23;;;;;;;1.55;1.30;;;;;;;24.15;49.42;99662.25;5111348;28;20063;-66
2023/08/31 05:41:53;;;;;;;2.53;1.65;;;;;;;24.15;49.44;99662.25;5111477;28;20062;-66
2023/08/31 05:44:22;;;;;;;2.33;1.40;;;;;;;24.15;49.65;99669.59;5109333;28;20043;-66
2023/08/31 05:46:54;;;;;;;3.40;1.30;;;;;;;24.15;49.48;99670.44;5111532;28;20051;-66
2023/08/31 05:49:22;;;;;;;2.88;1.35;;;;;;;24.13;49.42;99672.53;5109129;28;20036;-65
2023/08/31 05:51:53;;;;;;;2.63;1.70;;;;;;;24.14;49.51;99676.09;5111503;28;20050;-66
2023/08/31 05:54:21;;;;;;;1.85;1.40;;;;;;;24.14;49.41;99674.19;5111500;28;20416;-65
2023/08/31 05:56:49;;;;;;;2.05;1.40;;;;;;;24.13;49.57;99677.97;5111423;28;20083;-66
2023/08/31 05:59:21;;;;;;;2.92;1.30;;;;;;;24.13;49.59;99679.84;5111315;28;20445;-66
2023/08/31 06:01:49;;;;;;;2.15;1.35;;;;;;;24.12;49.47;99678.97;5111211;28;20036;-66
2023/08/31 06:04:19;;;;;;;3.33;1.50;;;;;;;24.13;49.53;99688.03;5111093;28;20127;-67
2023/08/31 06:06:47;;;;;;;2.42;1.50;;;;;;;24.12;49.53;99694.47;5108126;28;20718;-65
2023/08/31 06:09:16;;;;;;;2.72;1.30;;;;;;;24.12;49.45;99683.59;5110777;28;20044;-66
2023/08/31 06:11:44;;;;;;;1.80;1.40;;;;;;;24.10;49.61;99688.38;5111519;28;20044;-66
2023/08/31 06:14:12;;;;;;;2.17;1.60;;;;;;;24.08;49.46;99693.19;5111302;28;20477;-67
2023/08/31 06:16:42;;;;;;;2.17;1.30;;;;;;;24.08;49.39;99685.03;5093556;28;20048;-67
2023/08/31 06:19:10;;;;;;;3.08;1.50;;;;;;;24.08;49.54;99691.31;5115206;28;20047;-68
2023/08/31 06:21:39;;;;;;;2.58;1.60;;;;;;;24.08;49.38;99691.31;5115831;28;20047;-67
2023/08/31 06:24:09;;;;;;;2.65;1.60;;;;;;;24.06;49.39;99690.66;5115069;28;20055;-66
2023/08/31 06:26:38;;;;;;;1.80;1.50;;;;;;;24.05;49.33;99697.16;5115275;28;20135;-67
2023/08/31 06:29:07;;;;;;;3.78;1.50;;;;;;;24.05;49.37;99710.78;5115177;28;20464;-67
2023/08/31 06:31:36;;;;;;;3.50;1.40;;;;;;;24.06;49.41;99714.34;5114633;28;20035;-68
2023/08/31 06:34:05;;;;;;;2.00;1.30;;;;;;;24.04;49.50;99711.81;5111958;28;20047;-66
2023/08/31 06:36:33;;;;;;;2.97;1.30;;;;;;;24.06;49.54;99719.78;5114391;28;20043;-67
2023/08/31 06:39:01;;;;;;;1.75;1.38;;;;;;;24.03;49.56;99714.72;5114008;28;20502;-67
2023/08/31 06:41:30;;;;;;;3.55;1.50;;;;;;;24.02;49.43;99707.56;5114438;28;20039;-66
2023/08/31 06:43:59;;;;;;;2.28;1.58;;;;;;;23.99;49.41;99716.97;5114526;28;20401;-67
2023/08/31 06:46:27;;;;;;;2.40;1.60;;;;;;;24.00;49.45;99726.84;5114771;28;20400;-66
2023/08/31 06:48:55;;;;;;;2.90;1.65;;;;;;;23.97;49.58;99728.06;5114561;28;20069;-66
2023/08/31 06:51:25;;;;;;;3.75;1.60;;;;;;;23.96;49.19;99726.38;5114429;28;20051;-66
2023/08/31 06:53:53;;;;;;;2.47;1.50;;;;;;;23.96;49.57;99726.38;5114609;28;20464;-67
2023/08/31 06:56:22;;;;;;;3.95;1.60;;;;;;;23.95;49.43;99716.53;5114840;28;20131;-67
2023/08/31 06:58:50;;;;;;;3.30;1.58;;;;;;;23.96;49.23;99726.38;5114428;28;20048;-67
2023/08/31 07:01:18;;;;;;;3.50;1.52;;;;;;;23.96;49.27;99723.66;5113641;28;20135;-67
2023/08/31 07:03:46;;;;;;;3.42;1.63;;;;;;;23.97;49.50;99733.53;5114138;28;20046;-69
2023/08/31 07:06:14;;;;;;;3.65;1.60;;;;;;;23.96;49.47;99731.84;5113630;28;20117;-68
2023/08/31 07:08:45;;;;;;;5.13;1.60;;;;;;;23.97;49.32;99738.13;5112965;28;20134;-68
2023/08/31 07:11:13;;;;;;;2.47;1.60;;;;;;;23.97;49.42;99738.13;5112410;28;20054;-68
2023/08/31 07:13:41;;;;;;;3.70;1.65;;;;;;;23.97;49.52;99738.13;5112125;28;20044;-68
2023/08/31 07:16:09;;;;;;;3.30;1.60;;;;;;;23.95;49.47;99740.19;5113075;28;20484;-68
2023/08/31 07:18:37;;;;;;;2.03;1.40;;;;;;;23.99;49.51;99749.66;5113801;28;20104;-68
2023/08/31 07:21:06;;;;;;;4.75;1.65;;;;;;;23.95;49.51;99751.94;5114071;28;20054;-68
2023/08/31 07:23:34;;;;;;;3.78;1.60;;;;;;;24.00;49.36;99751.34;5113886;28;20147;-67
2023/08/31 07:26:04;;;;;;;3.30;1.60;;;;;;;24.01;49.44;99760.38;5114077;28;20459;-68
2023/08/31 07:28:33;;;;;;;2.55;1.60;;;;;;;24.01;49.57;99758.47;5113924;28;20047;-66
2023/08/31 07:31:03;;;;;;;3.13;1.50;;;;;;;24.01;49.60;99760.38;5113837;28;20043;-68
2023/08/31 07:33:32;;;;;;;4.68;1.80;;;;;;;24.02;49.54;99753.88;5113620;28;20046;-68
2023/08/31 07:36:01;;;;;;;3.22;1.60;;;;;;;24.03;49.58;99758.28;5113746;28;20044;-67
2023/08/31 07:38:31;;;;;;;3.80;1.70;;;;;;;24.03;49.69;99758.28;5113581;28;20131;-67
2023/08/31 07:40:59;;;;;;;4.60;1.58;;;;;;;24.05;49.61;99762.53;5113683;28;20046;-66
2023/08/31 07:43:29;;;;;;;2.55;1.60;;;;;;;24.04;49.55;99758.13;5113431;28;20480;-67
2023/08/31 07:45:58;;;;;;;3.83;1.73;;;;;;;24.04;49.58;99755.41;5113118;28;20082;-67
2023/08/31 07:48:26;;;;;;;2.22;1.50;;;;;;;24.05;49.49;99758.97;5113457;28;20508;-67
2023/08/31 07:50:54;;;;;;;2.97;1.60;;;;;;;24.04;49.28;99766.28;5113210;28;20477;-68
2023/08/31 07:53:22;;;;;;;2.08;1.50;;;;;;;24.06;49.64;99760.66;5113289;28;20043;-67
2023/08/31 07:55:56;;;;;;;2.75;1.40;;;;;;;24.07;49.50;99765.06;5113321;28;20051;-67
2023/08/31 07:58:24;;;;;;;3.65;1.85;;;;;;;24.07;49.40;99765.06;5113108;28;20549;-67
2023/08/31 08:00:55;;;;;;;3.50;1.80;;;;;;;24.08;49.42;99764.03;5113103;28;20051;-67
2023/08/31 08:03:25;;;;;;;3.10;1.60;;;;;;;24.10;49.21;99776.41;5113390;28;20044;-67
2023/08/31 08:05:53;;;;;;;3.63;1.50;;;;;;;24.09;49.67;99780.19;5113179;28;20130;-67
2023/08/31 08:08:21;;;;;;;2.60;1.60;;;;;;;24.11;49.67;99777.25;5113153;28;20527;-66
2023/08/31 08:10:53;;;;;;;2.78;1.52;;;;;;;24.11;49.46;99777.25;5112671;28;20051;-68
2023/08/31 08:13:21;;;;;;;2.53;1.40;;;;;;;24.12;49.58;99785.22;5113208;28;20454;-67
2023/08/31 08:15:50;;;;;;;3.10;1.73;;;;;;;24.12;49.50;99785.22;5113013;28;20044;-67
2023/08/31 08:18:19;;;;;;;4.13;1.50;;;;;;;24.15;49.47;99786.75;5112930;28;20047;-68
2023/08/31 08:20:49;;;;;;;3.13;1.67;;;;;;;24.16;49.84;99785.72;5112852;28;20047;-67
2023/08/31 08:23:17;;;;;;;3.72;1.50;;;;;;;24.16;49.55;99785.72;5113136;28;20043;-68
2023/08/31 08:25:45;;;;;;;2.65;1.50;;;;;;;24.16;49.69;99791.16;5112617;28;20519;-67
2023/08/31 08:28:13;;;;;;;2.38;1.60;;;;;;;24.18;49.43;99791.81;5112825;28;20113;-67
2023/08/31 08:30:42;;;;;;;3.88;1.70;;;;;;;24.20;49.65;99795.19;5112715;28;20047;-67
2023/08/31 08:33:13;;;;;;;3.05;1.60;;;;;;;24.20;49.65;99792.47;5112517;28;20077;-68
2023/08/31 08:35:43;;;;;;;3.15;1.67;;;;;;;24.22;49.52;99801.28;5112399;28;20047;-68
2023/08/31 08:38:12;;;;;;;2.90;1.60;;;;;;;24.21;49.55;99796.88;5112387;28;20054;-68
2023/08/31 08:40:40;;;;;;;2.38;1.52;;;;;;;24.24;49.65;99800.06;5112194;28;20055;-68
2023/08/31 08:43:11;;;;;;;2.85;1.60;;;;;;;24.25;49.42;99798.19;5112685;28;20051;-68
2023/08/31 08:45:42;;;;;;;2.35;1.67;;;;;;;24.26;49.41;99797.16;5112512;28;20047;-67
2023/08/31 08:48:10;;;;;;;2.67;1.60;;;;;;;24.27;49.50;99804.28;5112367;28;20349;-68
2023/08/31 08:50:38;;;;;;;4.53;1.90;;;;;;;24.26;49.42;99800.72;5112137;28;20043;-67
2023/08/31 08:53:08;;;;;;;3.13;1.60;;;;;;;24.29;49.60;99807.66;5112511;28;20050;-67
2023/08/31 08:55:36;;;;;;;3.47;1.95;;;;;;;24.30;49.42;99803.91;5112456;28;20460;-67
2023/08/31 08:58:05;;;;;;;2.53;1.63;;;;;;;24.31;49.42;99810.19;5112009;28;20044;-67
2023/08/31 09:00:34;;;;;;;3.72;1.95;;;;;;;24.32;49.50;99812.78;5112245;28;20070;-67
2023/08/31 09:03:04;;;;;;;3.22;1.90;;;;;;;24.34;49.67;99815.31;5112082;28;20054;-67
2023/08/31 09:05:33;;;;;;;2.63;1.67;;;;;;;24.35;49.37;99815.13;5112030;28;20048;-67
2023/08/31 09:08:02;;;;;;;2.97;1.70;;;;;;;24.35;49.65;99828.75;5112267;28;20058;-67
2023/08/31 09:10:41;;;;;;;3.17;1.55;;;;;;;24.39;49.54;99830.03;5112122;28;20082;-67
2023/08/31 09:13:10;;;;;;;3.38;1.95;;;;;;;24.38;49.76;99822.91;5112186;28;20459;-67
2023/08/31 09:15:43;;;;;;;2.88;1.80;;;;;;;24.41;49.45;99833.41;5094133;28;20047;-67
2023/08/31 09:18:23;;;;;;;3.33;1.95;;;;;;;24.44;49.42;99841.22;5112051;28;20048;-67
2023/08/31 09:20:52;;;;;;;2.53;1.52;;;;;;;24.46;49.55;99847.31;5112114;28;20043;-67
2023/08/31 09:23:21;;;;;;;3.42;1.83;;;;;;;24.47;49.61;99840.00;5111761;28;20476;-67
2023/08/31 09:25:53;;;;;;;3.20;2.00;;;;;;;24.48;49.51;99839.78;5111980;28;20138;-67
2023/08/31 09:28:23;;;;;;;2.90;1.92;;;;;;;24.50;49.39;99837.72;5111815;28;20100;-67
2023/08/31 09:30:53;;;;;;;3.08;1.50;;;;;;;24.51;49.54;99844.88;5112052;28;20054;-67
2023/08/31 09:33:21;;;;;;;2.85;1.70;;;;;;;24.53;49.37;99850.97;5112011;28;20047;-67
2023/08/31 09:35:51;;;;;;;2.42;1.75;;;;;;;24.54;49.39;99849.94;5111856;28;20598;-67
2023/08/31 09:38:20;;;;;;;2.30;1.50;;;;;;;24.59;49.30;99856.69;5111709;28;20046;-67
2023/08/31 09:40:48;;;;;;;2.67;1.70;;;;;;;24.59;49.43;99851.22;5111740;28;20135;-67
2023/08/31 09:43:21;;;;;;;2.72;1.60;;;;;;;24.61;49.36;99846.41;5112093;28;20461;-68
2023/08/31 09:45:50;;;;;;;3.00;1.70;;;;;;;24.63;49.35;99847.94;5111787;28;20547;-67
2023/08/31 09:48:21;;;;;;;3.47;1.77;;;;;;;24.64;49.23;99854.25;5112170;28;20146;-68
2023/08/31 09:50:52;;;;;;;2.95;1.70;;;;;;;24.67;49.37;99848.38;5112125;28;20047;-67
2023/08/31 09:53:22;;;;;;;3.50;1.70;;;;;;;24.69;49.33;99838.13;5114114;28;20473;-67
2023/08/31 09:55:51;;;;;;;2.80;1.52;;;;;;;24.70;49.55;99845.25;5115665;28;20040;-67
2023/08/31 09:58:22;;;;;;;3.25;1.90;;;;;;;24.73;49.46;99855.81;5115552;28;20050;-66
2023/08/31 10:00:52;;;;;;;2.55;1.70;;;;;;;24.74;49.40;99854.75;5115664;28;20557;-67
2023/08/31 10:03:21;;;;;;;2.30;1.45;;;;;;;24.78;49.45;99856.06;5115332;28;20055;-67
2023/08/31 10:05:51;;;;;;;2.80;1.80;;;;;;;24.79;49.20;99855.00;5115134;28;20130;-67
2023/08/31 10:08:19;;;;;;;3.05;1.75;;;;;;;24.82;49.36;99860.09;5115566;28;20323;-66
2023/08/31 10:10:47;;;;;;;2.90;1.80;;;;;;;24.84;49.41;99872.50;5115070;28;20579;-68
2023/08/31 10:13:16;;;;;;;1.92;1.40;;;;;;;24.86;49.29;99869.56;5115419;28;20100;-68
2023/08/31 10:15:49;;;;;;;2.70;1.95;;;;;;;24.89;49.43;99868.34;5115407;28;20126;-67
2023/08/31 10:18:18;;;;;;;3.20;1.80;;;;;;;24.89;49.38;99869.19;5115135;28;20040;-67
2023/08/31 10:20:47;;;;;;;2.45;1.70;;;;;;;24.92;49.17;99877.00;5115152;28;20054;-67
2023/08/31 10:23:15;;;;;;;2.78;1.50;;;;;;;24.96;49.43;99870.09;5115264;28;20101;-67
2023/08/31 10:26:04;;;;;;;2.58;1.48;;;;;;;24.98;49.11;99884.38;5114964;28;20547;-66
2023/08/31 10:28:41;;;;;;;3.05;1.65;;;;;;;25.03;49.12;99886.56;5115095;28;20105;-67
2023/08/31 10:31:16;;;;;;;2.13;1.50;;;;;;;25.04;49.09;99889.09;5115308;28;20040;-67
2023/08/31 10:33:45;;;;;;;2.72;1.60;;;;;;;25.04;49.32;99891.84;5115073;28;20044;-67
2023/08/31 10:36:15;;;;;;;3.72;1.70;;;;;;;25.07;49.25;99885.97;5114968;28;20158;-67
2023/08/31 10:38:46;;;;;;;3.03;1.70;;;;;;;25.06;48.97;99897.94;5114693;28;20051;-67
2023/08/31 10:41:25;;;;;;;2.85;1.63;;;;;;;25.09;48.97;99894.84;5114635;28;20460;-67
2023/08/31 10:43:57;;;;;;;2.25;1.38;;;;;;;25.09;49.36;99897.56;5114852;28;20058;-67
2023/08/31 10:46:32;;;;;;;2.60;1.60;;;;;;;25.12;48.80;99893.59;5114982;28;20098;-67
2023/08/31 10:49:02;;;;;;;2.83;1.80;;;;;;;25.13;48.89;99892.56;5114788;28;20477;-67
2023/08/31 10:51:32;;;;;;;2.80;1.70;;;;;;;25.16;48.91;99902.22;5114761;28;20073;-66
2023/08/31 10:54:10;;;;;;;2.03;1.38;;;;;;;25.17;49.00;99903.91;5114484;28;20097;-66
2023/08/31 10:57:03;;;;;;;3.00;1.67;;;;;;;25.21;48.63;99911.53;5114667;28;20058;-67
2023/08/31 10:59:51;;;;;;;2.35;1.30;;;;;;;25.20;48.78;99903.53;5114324;28;20051;-65
2023/08/31 11:02:32;;;;;;;2.75;1.52;;;;;;;25.22;48.82;99896.84;5114323;28;20576;-66
2023/08/31 11:05:03;;;;;;;2.50;1.40;;;;;;;25.23;48.94;99905.88;5114223;28;20584;-66
2023/08/31 11:07:34;;;;;;;3.45;1.52;;;;;;;25.24;49.04;99904.81;5114583;28;20044;-66
2023/08/31 11:10:11;;;;;;;;;;;;;;;25.25;48.86;99906.50;5114798;28;20408;-66
2023/08/31 11:12:40;;;;;;;3.08;1.80;;;;;;;25.27;48.97;99915.34;5114288;28;19920;-67
2023/08/31 11:15:09;;;;;;;2.63;1.67;;;;;;;25.28;49.05;99917.03;5114065;28;20065;-67
2023/08/31 11:17:40;;;;;;;2.97;1.83;;;;;;;25.27;48.74;99915.34;5114186;28;20463;-68
2023/08/31 11:20:10;;;;;;;2.10;1.50;;;;;;;25.27;49.00;99921.66;5114017;28;20055;-68
2023/08/31 11:22:42;;;;;;;3.05;1.40;;;;;;;25.32;48.73;99921.06;5113933;28;20051;-67
2023/08/31 11:25:13;;;;;;;3.10;1.42;;;;;;;25.34;48.92;99919.84;5113926;28;20058;-67
2023/08/31 11:27:41;;;;;;;2.83;1.40;;;;;;;25.36;48.82;99922.38;5114067;28;20039;-66
2023/08/31 11:30:16;;;;;;;2.70;1.48;;;;;;;25.36;49.06;99920.47;5114081;28;20457;-67
2023/08/31 11:32:47;;;;;;;2.00;1.50;;;;;;;25.39;48.77;99922.00;5113916;28;20444;-67
2023/08/31 11:35:17;;;;;;;2.58;1.55;;;;;;;25.43;48.64;99915.09;5113720;28;20508;-66
2023/08/31 11:37:46;;;;;;;2.47;1.60;;;;;;;25.45;48.46;99921.19;5113595;28;20044;-67
2023/08/31 11:40:15;;;;;;;2.90;1.58;;;;;;;25.47;48.77;99927.28;5095311;28;20055;-67
2023/08/31 11:42:43;;;;;;;2.42;1.50;;;;;;;25.49;48.51;99925.22;5113656;28;20108;-67
2023/08/31 11:45:13;;;;;;;5.85;1.67;;;;;;;25.50;48.29;99916.00;5113775;28;20074;-66